aviador You're here:

LFMY Decoded Metar

SALON in FRANCE
Report Time2017-09-25 16:30:00
UTC Time2017-09-25 16:55:03
Flight Rules vfr VFR
Wind210° at 03 kt
W.Decomp.*RWY 16: 2.0 kt HW 2.3 kt RCW
W.Rank210° ranks 5
Current wind is below 210° avg. (6.1)
Visibility9999 m
Phenomena:N/A
Clouds:N/A
Expected CloudBase > 1,600 ft AGL from Temp-Dew spread
CeilingNone
Temp20°C (ISA +5)
Dew Point16°C (78% RH)
QNH1018 hPa
Density Alt902 ft
Elevation197 ft
Report Wrong Elevation
Raw Report
METAR LFMY 251630Z AUTO 21003KT 180V240 CAVOK 20/16 Q1018=

Extra information for LFMY:More info

Metar Taf Metar & Taf Last 4 Metars F.Rules Stats Wind Profile Meteogram Temp Stats Airport Information Weather charts Add Link Nearby VenuesMetar ALERT Operation Metar Decoded Social comments